sensor_id;sensor_type;location;lat;lon;timestamp;P1;durP1;ratioP1;P2;durP2;ratioP2
545;SDS011;259;53.304;9.816;2022-09-09T00:04:30;2.40;;;2.30;;
545;SDS011;259;53.304;9.816;2022-09-09T00:07:12;2.17;;;2.07;;
545;SDS011;259;53.304;9.816;2022-09-09T00:09:47;3.33;;;2.40;;
545;SDS011;259;53.304;9.816;2022-09-09T00:15:14;2.17;;;1.93;;
545;SDS011;259;53.304;9.816;2022-09-09T00:17:58;2.37;;;2.27;;
545;SDS011;259;53.304;9.816;2022-09-09T00:20:51;2.30;;;2.20;;
545;SDS011;259;53.304;9.816;2022-09-09T00:23:28;2.37;;;2.27;;
545;SDS011;259;53.304;9.816;2022-09-09T00:26:03;2.70;;;2.23;;
545;SDS011;259;53.304;9.816;2022-09-09T00:28:49;2.90;;;2.70;;
545;SDS011;259;53.304;9.816;2022-09-09T00:31:21;4.07;;;2.30;;
545;SDS011;259;53.304;9.816;2022-09-09T00:33:50;12.43;;;3.13;;
545;SDS011;259;53.304;9.816;2022-09-09T00:36:18;2.30;;;2.20;;
545;SDS011;259;53.304;9.816;2022-09-09T00:38:55;2.33;;;2.20;;
545;SDS011;259;53.304;9.816;2022-09-09T00:52:29;4.03;;;2.10;;
545;SDS011;259;53.304;9.816;2022-09-09T00:58:14;2.23;;;2.03;;
545;SDS011;259;53.304;9.816;2022-09-09T01:00:48;2.70;;;1.90;;
545;SDS011;259;53.304;9.816;2022-09-09T01:03:22;2.00;;;1.90;;
545;SDS011;259;53.304;9.816;2022-09-09T01:06:12;2.53;;;2.33;;
545;SDS011;259;53.304;9.816;2022-09-09T01:08:58;4.50;;;2.97;;
545;SDS011;259;53.304;9.816;2022-09-09T01:11:48;2.27;;;2.10;;
545;SDS011;259;53.304;9.816;2022-09-09T01:17:01;2.50;;;2.30;;
545;SDS011;259;53.304;9.816;2022-09-09T01:19:37;2.30;;;2.20;;
545;SDS011;259;53.304;9.816;2022-09-09T01:27:40;2.43;;;2.23;;
545;SDS011;259;53.304;9.816;2022-09-09T01:30:09;2.27;;;2.17;;
545;SDS011;259;53.304;9.816;2022-09-09T01:35:09;2.67;;;2.00;;
545;SDS011;259;53.304;9.816;2022-09-09T01:37:39;2.43;;;2.23;;
545;SDS011;259;53.304;9.816;2022-09-09T01:40:05;2.90;;;2.00;;
545;SDS011;259;53.304;9.816;2022-09-09T01:42:31;1.93;;;1.83;;
545;SDS011;259;53.304;9.816;2022-09-09T01:44:57;2.80;;;2.70;;
545;SDS011;259;53.304;9.816;2022-09-09T01:47:23;2.43;;;2.23;;
545;SDS011;259;53.304;9.816;2022-09-09T01:49:49;2.40;;;2.30;;
545;SDS011;259;53.304;9.816;2022-09-09T01:52:14;2.37;;;2.10;;
545;SDS011;259;53.304;9.816;2022-09-09T01:54:40;2.07;;;1.97;;
545;SDS011;259;53.304;9.816;2022-09-09T01:57:11;2.80;;;2.60;;
545;SDS011;259;53.304;9.816;2022-09-09T02:00:00;2.43;;;2.33;;
545;SDS011;259;53.304;9.816;2022-09-09T02:02:35;2.23;;;2.13;;
545;SDS011;259;53.304;9.816;2022-09-09T02:05:14;2.20;;;2.10;;
545;SDS011;259;53.304;9.816;2022-09-09T02:07:48;2.50;;;2.33;;
545;SDS011;259;53.304;9.816;2022-09-09T02:10:21;4.10;;;1.90;;
545;SDS011;259;53.304;9.816;2022-09-09T02:12:48;2.40;;;2.03;;
545;SDS011;259;53.304;9.816;2022-09-09T02:15:21;2.50;;;2.30;;
545;SDS011;259;53.304;9.816;2022-09-09T02:18:18;1.97;;;1.87;;
545;SDS011;259;53.304;9.816;2022-09-09T02:20:51;2.40;;;2.00;;
545;SDS011;259;53.304;9.816;2022-09-09T02:23:18;2.17;;;2.07;;
545;SDS011;259;53.304;9.816;2022-09-09T02:25:45;2.20;;;2.00;;
545;SDS011;259;53.304;9.816;2022-09-09T02:28:12;2.30;;;2.20;;
545;SDS011;259;53.304;9.816;2022-09-09T02:30:40;2.30;;;2.03;;
545;SDS011;259;53.304;9.816;2022-09-09T02:33:10;2.60;;;1.97;;
545;SDS011;259;53.304;9.816;2022-09-09T02:35:37;2.07;;;1.97;;
545;SDS011;259;53.304;9.816;2022-09-09T02:38:06;2.47;;;2.37;;
545;SDS011;259;53.304;9.816;2022-09-09T02:40:36;1.90;;;1.80;;
545;SDS011;259;53.304;9.816;2022-09-09T02:43:02;1.73;;;1.60;;
545;SDS011;259;53.304;9.816;2022-09-09T02:45:31;2.10;;;2.00;;
545;SDS011;259;53.304;9.816;2022-09-09T02:51:19;2.30;;;2.10;;
545;SDS011;259;53.304;9.816;2022-09-09T02:54:23;1.80;;;1.70;;
545;SDS011;259;53.304;9.816;2022-09-09T02:56:55;2.03;;;1.93;;
545;SDS011;259;53.304;9.816;2022-09-09T02:59:27;2.27;;;2.17;;
545;SDS011;259;53.304;9.816;2022-09-09T03:01:52;1.83;;;1.73;;
545;SDS011;259;53.304;9.816;2022-09-09T03:04:18;1.87;;;1.77;;
545;SDS011;259;53.304;9.816;2022-09-09T03:06:44;2.57;;;2.37;;
545;SDS011;259;53.304;9.816;2022-09-09T03:09:09;2.13;;;2.03;;
545;SDS011;259;53.304;9.816;2022-09-09T03:11:35;2.47;;;2.37;;
545;SDS011;259;53.304;9.816;2022-09-09T03:14:01;2.40;;;2.20;;
545;SDS011;259;53.304;9.816;2022-09-09T03:16:27;2.13;;;2.03;;
545;SDS011;259;53.304;9.816;2022-09-09T03:18:52;2.00;;;1.90;;
545;SDS011;259;53.304;9.816;2022-09-09T03:21:18;1.90;;;1.80;;
545;SDS011;259;53.304;9.816;2022-09-09T03:23:43;1.70;;;1.60;;
545;SDS011;259;53.304;9.816;2022-09-09T03:26:10;1.70;;;1.60;;
545;SDS011;259;53.304;9.816;2022-09-09T03:28:35;1.90;;;1.80;;
545;SDS011;259;53.304;9.816;2022-09-09T03:31:04;1.80;;;1.70;;
545;SDS011;259;53.304;9.816;2022-09-09T03:33:30;2.10;;;2.00;;
545;SDS011;259;53.304;9.816;2022-09-09T03:35:56;1.70;;;1.60;;
545;SDS011;259;53.304;9.816;2022-09-09T03:38:22;2.07;;;1.97;;
545;SDS011;259;53.304;9.816;2022-09-09T03:40:53;1.87;;;1.77;;
545;SDS011;259;53.304;9.816;2022-09-09T03:43:26;2.00;;;1.90;;
545;SDS011;259;53.304;9.816;2022-09-09T03:45:52;1.80;;;1.70;;
545;SDS011;259;53.304;9.816;2022-09-09T03:48:21;2.07;;;1.83;;
545;SDS011;259;53.304;9.816;2022-09-09T03:50:48;1.63;;;1.53;;
545;SDS011;259;53.304;9.816;2022-09-09T03:53:18;1.90;;;1.80;;
545;SDS011;259;53.304;9.816;2022-09-09T03:55:47;2.10;;;2.00;;
545;SDS011;259;53.304;9.816;2022-09-09T03:58:14;2.20;;;2.00;;
545;SDS011;259;53.304;9.816;2022-09-09T04:00:40;2.53;;;2.23;;
545;SDS011;259;53.304;9.816;2022-09-09T04:03:10;2.20;;;2.10;;
545;SDS011;259;53.304;9.816;2022-09-09T04:05:36;1.83;;;1.73;;
545;SDS011;259;53.304;9.816;2022-09-09T04:08:04;1.90;;;1.80;;
545;SDS011;259;53.304;9.816;2022-09-09T04:10:33;1.93;;;1.83;;
545;SDS011;259;53.304;9.816;2022-09-09T04:13:01;1.73;;;1.63;;
545;SDS011;259;53.304;9.816;2022-09-09T04:15:27;1.67;;;1.57;;
545;SDS011;259;53.304;9.816;2022-09-09T04:17:53;2.00;;;1.80;;
545;SDS011;259;53.304;9.816;2022-09-09T04:20:18;2.00;;;1.90;;
545;SDS011;259;53.304;9.816;2022-09-09T04:22:44;1.90;;;1.80;;
545;SDS011;259;53.304;9.816;2022-09-09T04:25:10;1.90;;;1.80;;
545;SDS011;259;53.304;9.816;2022-09-09T04:27:35;2.07;;;1.87;;
545;SDS011;259;53.304;9.816;2022-09-09T04:30:01;1.73;;;1.53;;
545;SDS011;259;53.304;9.816;2022-09-09T04:32:26;2.00;;;1.90;;
545;SDS011;259;53.304;9.816;2022-09-09T04:34:52;1.80;;;1.70;;
545;SDS011;259;53.304;9.816;2022-09-09T04:37:18;1.63;;;1.53;;
545;SDS011;259;53.304;9.816;2022-09-09T04:39:43;2.00;;;1.90;;
545;SDS011;259;53.304;9.816;2022-09-09T04:42:10;2.03;;;1.60;;
545;SDS011;259;53.304;9.816;2022-09-09T04:44:36;1.73;;;1.33;;
545;SDS011;259;53.304;9.816;2022-09-09T04:47:01;2.17;;;1.97;;
545;SDS011;259;53.304;9.816;2022-09-09T04:49:27;1.60;;;1.50;;
545;SDS011;259;53.304;9.816;2022-09-09T04:51:52;1.70;;;1.47;;
545;SDS011;259;53.304;9.816;2022-09-09T04:54:18;1.60;;;1.50;;
545;SDS011;259;53.304;9.816;2022-09-09T04:56:43;1.90;;;1.80;;
545;SDS011;259;53.304;9.816;2022-09-09T04:59:09;1.47;;;1.40;;
545;SDS011;259;53.304;9.816;2022-09-09T05:01:35;1.63;;;1.53;;
545;SDS011;259;53.304;9.816;2022-09-09T05:04:01;1.40;;;1.30;;
545;SDS011;259;53.304;9.816;2022-09-09T05:06:27;1.57;;;1.47;;
545;SDS011;259;53.304;9.816;2022-09-09T05:08:56;1.80;;;1.63;;
545;SDS011;259;53.304;9.816;2022-09-09T05:11:23;2.17;;;1.77;;
545;SDS011;259;53.304;9.816;2022-09-09T05:13:52;1.50;;;1.40;;
545;SDS011;259;53.304;9.816;2022-09-09T05:16:19;1.77;;;1.63;;
545;SDS011;259;53.304;9.816;2022-09-09T05:18:45;2.07;;;1.87;;
545;SDS011;259;53.304;9.816;2022-09-09T05:21:12;1.67;;;1.57;;
545;SDS011;259;53.304;9.816;2022-09-09T05:23:39;1.47;;;1.37;;
545;SDS011;259;53.304;9.816;2022-09-09T05:26:05;1.30;;;1.20;;
545;SDS011;259;53.304;9.816;2022-09-09T05:28:33;1.80;;;1.70;;
545;SDS011;259;53.304;9.816;2022-09-09T05:31:00;1.70;;;1.47;;
545;SDS011;259;53.304;9.816;2022-09-09T05:33:30;1.77;;;1.67;;
545;SDS011;259;53.304;9.816;2022-09-09T05:35:57;1.80;;;1.70;;
545;SDS011;259;53.304;9.816;2022-09-09T05:38:27;1.60;;;1.50;;
545;SDS011;259;53.304;9.816;2022-09-09T05:40:54;1.77;;;1.60;;
545;SDS011;259;53.304;9.816;2022-09-09T05:43:21;1.10;;;1.10;;
545;SDS011;259;53.304;9.816;2022-09-09T05:45:48;2.70;;;1.80;;
545;SDS011;259;53.304;9.816;2022-09-09T05:48:23;1.50;;;1.40;;
545;SDS011;259;53.304;9.816;2022-09-09T05:50:52;1.73;;;1.63;;
545;SDS011;259;53.304;9.816;2022-09-09T05:53:19;1.50;;;1.40;;
545;SDS011;259;53.304;9.816;2022-09-09T05:55:45;1.67;;;1.57;;
545;SDS011;259;53.304;9.816;2022-09-09T05:58:10;1.37;;;1.27;;
545;SDS011;259;53.304;9.816;2022-09-09T06:00:36;1.50;;;1.40;;
545;SDS011;259;53.304;9.816;2022-09-09T06:03:03;1.47;;;1.47;;
545;SDS011;259;53.304;9.816;2022-09-09T06:05:29;1.40;;;1.30;;
545;SDS011;259;53.304;9.816;2022-09-09T06:07:55;1.20;;;1.20;;
545;SDS011;259;53.304;9.816;2022-09-09T06:10:21;1.33;;;1.23;;
545;SDS011;259;53.304;9.816;2022-09-09T06:12:47;1.03;;;1.03;;
545;SDS011;259;53.304;9.816;2022-09-09T06:15:12;1.30;;;1.20;;
545;SDS011;259;53.304;9.816;2022-09-09T06:17:38;1.20;;;1.20;;
545;SDS011;259;53.304;9.816;2022-09-09T06:20:04;1.20;;;1.20;;
545;SDS011;259;53.304;9.816;2022-09-09T06:22:29;1.47;;;1.37;;
545;SDS011;259;53.304;9.816;2022-09-09T06:24:55;1.60;;;1.50;;
545;SDS011;259;53.304;9.816;2022-09-09T06:27:21;1.63;;;1.20;;
545;SDS011;259;53.304;9.816;2022-09-09T06:29:46;1.60;;;1.50;;
545;SDS011;259;53.304;9.816;2022-09-09T06:32:13;1.50;;;1.40;;
545;SDS011;259;53.304;9.816;2022-09-09T06:34:39;1.47;;;1.30;;
545;SDS011;259;53.304;9.816;2022-09-09T06:37:04;1.23;;;1.20;;
545;SDS011;259;53.304;9.816;2022-09-09T06:39:31;1.50;;;1.40;;
545;SDS011;259;53.304;9.816;2022-09-09T06:41:57;1.20;;;1.20;;
545;SDS011;259;53.304;9.816;2022-09-09T06:44:23;1.10;;;1.07;;
545;SDS011;259;53.304;9.816;2022-09-09T06:46:51;1.37;;;1.27;;
545;SDS011;259;53.304;9.816;2022-09-09T06:49:17;1.20;;;1.10;;
545;SDS011;259;53.304;9.816;2022-09-09T06:51:43;1.30;;;1.30;;
545;SDS011;259;53.304;9.816;2022-09-09T06:54:09;1.43;;;1.33;;
545;SDS011;259;53.304;9.816;2022-09-09T06:56:37;1.47;;;1.37;;
545;SDS011;259;53.304;9.816;2022-09-09T06:59:06;1.13;;;1.03;;
545;SDS011;259;53.304;9.816;2022-09-09T07:01:35;1.30;;;1.30;;
545;SDS011;259;53.304;9.816;2022-09-09T07:04:02;1.10;;;1.10;;
545;SDS011;259;53.304;9.816;2022-09-09T07:06:30;1.47;;;1.37;;
545;SDS011;259;53.304;9.816;2022-09-09T07:08:58;1.00;;;0.90;;
545;SDS011;259;53.304;9.816;2022-09-09T07:11:27;1.30;;;1.20;;
545;SDS011;259;53.304;9.816;2022-09-09T07:13:54;1.33;;;1.10;;
545;SDS011;259;53.304;9.816;2022-09-09T07:16:20;1.10;;;1.00;;
545;SDS011;259;53.304;9.816;2022-09-09T07:18:49;1.40;;;1.27;;
545;SDS011;259;53.304;9.816;2022-09-09T07:21:15;1.33;;;1.33;;
545;SDS011;259;53.304;9.816;2022-09-09T07:23:41;2.20;;;1.40;;
545;SDS011;259;53.304;9.816;2022-09-09T07:26:11;2.50;;;1.10;;
545;SDS011;259;53.304;9.816;2022-09-09T07:28:38;1.00;;;1.00;;
545;SDS011;259;53.304;9.816;2022-09-09T07:31:07;1.97;;;1.87;;
545;SDS011;259;53.304;9.816;2022-09-09T07:33:41;1.60;;;1.50;;
545;SDS011;259;53.304;9.816;2022-09-09T07:36:08;1.20;;;1.10;;
545;SDS011;259;53.304;9.816;2022-09-09T07:38:52;2.73;;;1.20;;
545;SDS011;259;53.304;9.816;2022-09-09T07:41:23;4.00;;;1.37;;
545;SDS011;259;53.304;9.816;2022-09-09T07:43:50;1.00;;;1.00;;
545;SDS011;259;53.304;9.816;2022-09-09T07:46:19;1.73;;;1.43;;
545;SDS011;259;53.304;9.816;2022-09-09T07:48:47;3.50;;;1.70;;
545;SDS011;259;53.304;9.816;2022-09-09T07:51:19;1.30;;;1.30;;
545;SDS011;259;53.304;9.816;2022-09-09T07:53:48;3.03;;;1.40;;
545;SDS011;259;53.304;9.816;2022-09-09T07:56:17;3.80;;;1.70;;
545;SDS011;259;53.304;9.816;2022-09-09T07:58:46;4.37;;;1.70;;
545;SDS011;259;53.304;9.816;2022-09-09T08:01:17;7.53;;;2.70;;
545;SDS011;259;53.304;9.816;2022-09-09T08:03:45;4.90;;;1.90;;
545;SDS011;259;53.304;9.816;2022-09-09T08:06:12;7.57;;;2.60;;
545;SDS011;259;53.304;9.816;2022-09-09T08:08:39;7.20;;;2.50;;
545;SDS011;259;53.304;9.816;2022-09-09T08:11:13;4.03;;;1.90;;
545;SDS011;259;53.304;9.816;2022-09-09T08:13:40;6.20;;;2.10;;
545;SDS011;259;53.304;9.816;2022-09-09T08:16:08;3.60;;;1.67;;
545;SDS011;259;53.304;9.816;2022-09-09T08:18:36;5.00;;;1.80;;
545;SDS011;259;53.304;9.816;2022-09-09T08:21:10;2.33;;;2.13;;
545;SDS011;259;53.304;9.816;2022-09-09T08:23:41;3.93;;;2.40;;
545;SDS011;259;53.304;9.816;2022-09-09T08:26:10;6.10;;;2.40;;
545;SDS011;259;53.304;9.816;2022-09-09T08:28:44;9.90;;;2.27;;
545;SDS011;259;53.304;9.816;2022-09-09T08:31:14;9.10;;;2.70;;
545;SDS011;259;53.304;9.816;2022-09-09T08:33:41;9.10;;;2.07;;
545;SDS011;259;53.304;9.816;2022-09-09T08:36:11;6.20;;;2.20;;
545;SDS011;259;53.304;9.816;2022-09-09T08:38:40;6.47;;;3.53;;
545;SDS011;259;53.304;9.816;2022-09-09T08:44:24;9.33;;;2.80;;
545;SDS011;259;53.304;9.816;2022-09-09T08:49:46;6.87;;;2.93;;
545;SDS011;259;53.304;9.816;2022-09-09T08:55:32;8.03;;;2.20;;
545;SDS011;259;53.304;9.816;2022-09-09T08:58:08;5.77;;;2.00;;
545;SDS011;259;53.304;9.816;2022-09-09T09:00:41;4.93;;;1.90;;
545;SDS011;259;53.304;9.816;2022-09-09T09:03:22;3.97;;;1.80;;
545;SDS011;259;53.304;9.816;2022-09-09T09:06:44;2.40;;;2.10;;
545;SDS011;259;53.304;9.816;2022-09-09T09:09:22;2.23;;;1.90;;
545;SDS011;259;53.304;9.816;2022-09-09T09:12:02;3.37;;;1.70;;
545;SDS011;259;53.304;9.816;2022-09-09T09:14:58;2.87;;;1.67;;
545;SDS011;259;53.304;9.816;2022-09-09T09:17:25;2.60;;;1.50;;
545;SDS011;259;53.304;9.816;2022-09-09T09:19:54;2.17;;;1.53;;
545;SDS011;259;53.304;9.816;2022-09-09T09:22:30;4.20;;;1.70;;
545;SDS011;259;53.304;9.816;2022-09-09T09:25:20;2.77;;;1.90;;
545;SDS011;259;53.304;9.816;2022-09-09T09:30:20;2.93;;;1.43;;
545;SDS011;259;53.304;9.816;2022-09-09T09:35:19;3.03;;;1.53;;
545;SDS011;259;53.304;9.816;2022-09-09T09:37:44;1.83;;;1.10;;
545;SDS011;259;53.304;9.816;2022-09-09T09:40:11;1.73;;;1.13;;
545;SDS011;259;53.304;9.816;2022-09-09T09:42:52;3.07;;;1.20;;
545;SDS011;259;53.304;9.816;2022-09-09T09:45:33;2.73;;;1.70;;
545;SDS011;259;53.304;9.816;2022-09-09T09:48:08;3.43;;;1.03;;
545;SDS011;259;53.304;9.816;2022-09-09T09:50:39;1.70;;;1.10;;
545;SDS011;259;53.304;9.816;2022-09-09T09:53:47;3.87;;;1.13;;
545;SDS011;259;53.304;9.816;2022-09-09T09:56:14;1.80;;;1.10;;
545;SDS011;259;53.304;9.816;2022-09-09T10:01:28;8.10;;;1.67;;
545;SDS011;259;53.304;9.816;2022-09-09T10:04:02;7.73;;;1.60;;
545;SDS011;259;53.304;9.816;2022-09-09T10:06:41;7.43;;;2.30;;
545;SDS011;259;53.304;9.816;2022-09-09T10:09:23;8.13;;;2.00;;
545;SDS011;259;53.304;9.816;2022-09-09T10:12:04;4.00;;;1.50;;
545;SDS011;259;53.304;9.816;2022-09-09T10:14:52;8.20;;;1.83;;
545;SDS011;259;53.304;9.816;2022-09-09T10:28:45;9.53;;;2.77;;
545;SDS011;259;53.304;9.816;2022-09-09T10:37:06;8.10;;;1.87;;
545;SDS011;259;53.304;9.816;2022-09-09T10:39:47;4.50;;;1.50;;
545;SDS011;259;53.304;9.816;2022-09-09T10:42:23;3.90;;;1.73;;
545;SDS011;259;53.304;9.816;2022-09-09T10:55:18;2.80;;;1.43;;
545;SDS011;259;53.304;9.816;2022-09-09T10:57:50;2.73;;;1.50;;
545;SDS011;259;53.304;9.816;2022-09-09T11:00:20;2.70;;;1.17;;
545;SDS011;259;53.304;9.816;2022-09-09T11:02:49;2.17;;;1.97;;
545;SDS011;259;53.304;9.816;2022-09-09T11:05:26;2.00;;;1.20;;
545;SDS011;259;53.304;9.816;2022-09-09T11:07:56;3.67;;;1.30;;
545;SDS011;259;53.304;9.816;2022-09-09T11:10:33;1.67;;;1.00;;
545;SDS011;259;53.304;9.816;2022-09-09T11:13:53;1.63;;;1.13;;
545;SDS011;259;53.304;9.816;2022-09-09T11:19:21;3.37;;;1.30;;
545;SDS011;259;53.304;9.816;2022-09-09T11:21:59;2.20;;;1.07;;
545;SDS011;259;53.304;9.816;2022-09-09T11:24:45;1.20;;;1.07;;
545;SDS011;259;53.304;9.816;2022-09-09T11:27:16;2.50;;;1.43;;
545;SDS011;259;53.304;9.816;2022-09-09T11:36:13;1.10;;;1.00;;
545;SDS011;259;53.304;9.816;2022-09-09T11:39:23;2.00;;;1.30;;
545;SDS011;259;53.304;9.816;2022-09-09T11:42:05;2.10;;;1.23;;
545;SDS011;259;53.304;9.816;2022-09-09T11:44:51;0.80;;;0.80;;
545;SDS011;259;53.304;9.816;2022-09-09T11:52:40;1.57;;;0.90;;
545;SDS011;259;53.304;9.816;2022-09-09T11:55:19;2.87;;;0.97;;
545;SDS011;259;53.304;9.816;2022-09-09T11:58:02;1.57;;;1.23;;
545;SDS011;259;53.304;9.816;2022-09-09T12:00:35;2.00;;;1.20;;
545;SDS011;259;53.304;9.816;2022-09-09T12:08:36;1.77;;;1.00;;
545;SDS011;259;53.304;9.816;2022-09-09T12:11:05;3.90;;;2.30;;
545;SDS011;259;53.304;9.816;2022-09-09T12:13:31;1.23;;;1.03;;
545;SDS011;259;53.304;9.816;2022-09-09T12:15:58;1.43;;;1.10;;
545;SDS011;259;53.304;9.816;2022-09-09T12:21:19;1.67;;;1.20;;
545;SDS011;259;53.304;9.816;2022-09-09T12:26:34;1.00;;;0.90;;
545;SDS011;259;53.304;9.816;2022-09-09T12:43:18;2.00;;;1.47;;
545;SDS011;259;53.304;9.816;2022-09-09T12:45:46;1.43;;;1.20;;
545;SDS011;259;53.304;9.816;2022-09-09T12:48:15;1.47;;;1.37;;
545;SDS011;259;53.304;9.816;2022-09-09T12:50:44;1.77;;;1.13;;
545;SDS011;259;53.304;9.816;2022-09-09T12:56:19;1.37;;;1.27;;
545;SDS011;259;53.304;9.816;2022-09-09T12:58:48;1.93;;;1.57;;
545;SDS011;259;53.304;9.816;2022-09-09T13:01:23;1.20;;;1.10;;
545;SDS011;259;53.304;9.816;2022-09-09T13:03:51;1.23;;;1.10;;
545;SDS011;259;53.304;9.816;2022-09-09T13:06:21;1.40;;;1.30;;
545;SDS011;259;53.304;9.816;2022-09-09T13:08:52;1.80;;;1.40;;
545;SDS011;259;53.304;9.816;2022-09-09T13:11:20;1.37;;;1.13;;
545;SDS011;259;53.304;9.816;2022-09-09T13:14:01;1.30;;;1.20;;
545;SDS011;259;53.304;9.816;2022-09-09T13:16:29;1.10;;;1.07;;
545;SDS011;259;53.304;9.816;2022-09-09T13:18:57;1.63;;;1.13;;
545;SDS011;259;53.304;9.816;2022-09-09T13:21:31;1.43;;;1.10;;
545;SDS011;259;53.304;9.816;2022-09-09T13:23:59;1.40;;;1.30;;
545;SDS011;259;53.304;9.816;2022-09-09T13:26:28;2.07;;;1.20;;
545;SDS011;259;53.304;9.816;2022-09-09T13:28:55;1.30;;;1.20;;
545;SDS011;259;53.304;9.816;2022-09-09T13:31:33;2.17;;;1.40;;
545;SDS011;259;53.304;9.816;2022-09-09T13:34:50;0.90;;;0.90;;
545;SDS011;259;53.304;9.816;2022-09-09T13:37:05;1.60;;;1.20;;
545;SDS011;259;53.304;9.816;2022-09-09T13:39:36;1.73;;;1.07;;
545;SDS011;259;53.304;9.816;2022-09-09T13:42:03;1.10;;;1.00;;
545;SDS011;259;53.304;9.816;2022-09-09T13:44:36;1.13;;;1.03;;
545;SDS011;259;53.304;9.816;2022-09-09T13:49:39;1.33;;;1.23;;
545;SDS011;259;53.304;9.816;2022-09-09T13:54:42;1.30;;;1.20;;
545;SDS011;259;53.304;9.816;2022-09-09T13:59:36;1.27;;;1.17;;
545;SDS011;259;53.304;9.816;2022-09-09T14:02:02;2.00;;;0.93;;
545;SDS011;259;53.304;9.816;2022-09-09T14:04:27;1.30;;;1.20;;
545;SDS011;259;53.304;9.816;2022-09-09T14:06:53;0.80;;;0.80;;
545;SDS011;259;53.304;9.816;2022-09-09T14:09:19;1.10;;;1.00;;
545;SDS011;259;53.304;9.816;2022-09-09T14:11:45;1.67;;;1.10;;
545;SDS011;259;53.304;9.816;2022-09-09T14:14:11;1.23;;;1.23;;
545;SDS011;259;53.304;9.816;2022-09-09T14:16:37;1.00;;;1.00;;
545;SDS011;259;53.304;9.816;2022-09-09T14:19:02;1.00;;;1.00;;
545;SDS011;259;53.304;9.816;2022-09-09T14:21:28;1.33;;;1.20;;
545;SDS011;259;53.304;9.816;2022-09-09T14:23:54;1.20;;;1.10;;
545;SDS011;259;53.304;9.816;2022-09-09T14:26:20;1.40;;;0.90;;
545;SDS011;259;53.304;9.816;2022-09-09T14:28:46;1.07;;;1.00;;
545;SDS011;259;53.304;9.816;2022-09-09T14:31:12;1.73;;;1.10;;
545;SDS011;259;53.304;9.816;2022-09-09T14:33:39;1.33;;;0.93;;
545;SDS011;259;53.304;9.816;2022-09-09T14:36:05;1.03;;;1.03;;
545;SDS011;259;53.304;9.816;2022-09-09T14:38:31;2.03;;;1.03;;
545;SDS011;259;53.304;9.816;2022-09-09T14:41:00;1.70;;;1.13;;
545;SDS011;259;53.304;9.816;2022-09-09T14:43:28;1.30;;;1.20;;
545;SDS011;259;53.304;9.816;2022-09-09T14:45:55;4.00;;;1.17;;
545;SDS011;259;53.304;9.816;2022-09-09T14:48:20;4.80;;;1.40;;
545;SDS011;259;53.304;9.816;2022-09-09T14:50:46;1.40;;;0.90;;
545;SDS011;259;53.304;9.816;2022-09-09T14:53:12;1.07;;;1.07;;
545;SDS011;259;53.304;9.816;2022-09-09T14:55:37;1.10;;;0.80;;
545;SDS011;259;53.304;9.816;2022-09-09T14:58:03;1.23;;;1.03;;
545;SDS011;259;53.304;9.816;2022-09-09T15:00:31;1.13;;;0.80;;
545;SDS011;259;53.304;9.816;2022-09-09T15:02:56;1.33;;;1.00;;
545;SDS011;259;53.304;9.816;2022-09-09T15:05:22;2.60;;;1.00;;
545;SDS011;259;53.304;9.816;2022-09-09T15:07:49;3.37;;;1.20;;
545;SDS011;259;53.304;9.816;2022-09-09T15:10:15;3.83;;;1.27;;
545;SDS011;259;53.304;9.816;2022-09-09T15:12:42;0.87;;;0.83;;
545;SDS011;259;53.304;9.816;2022-09-09T15:15:08;1.23;;;1.13;;
545;SDS011;259;53.304;9.816;2022-09-09T15:17:34;1.43;;;1.07;;
545;SDS011;259;53.304;9.816;2022-09-09T15:20:00;0.90;;;0.90;;
545;SDS011;259;53.304;9.816;2022-09-09T15:22:26;1.07;;;0.80;;
545;SDS011;259;53.304;9.816;2022-09-09T15:24:51;0.90;;;0.90;;
545;SDS011;259;53.304;9.816;2022-09-09T15:27:17;0.80;;;0.70;;
545;SDS011;259;53.304;9.816;2022-09-09T15:29:43;1.47;;;0.90;;
545;SDS011;259;53.304;9.816;2022-09-09T15:32:09;2.40;;;1.00;;
545;SDS011;259;53.304;9.816;2022-09-09T15:34:35;1.37;;;0.97;;
545;SDS011;259;53.304;9.816;2022-09-09T15:37:00;2.40;;;0.90;;
545;SDS011;259;53.304;9.816;2022-09-09T15:39:26;1.07;;;0.90;;
545;SDS011;259;53.304;9.816;2022-09-09T15:41:52;2.17;;;1.13;;
545;SDS011;259;53.304;9.816;2022-09-09T15:44:17;0.90;;;0.83;;
545;SDS011;259;53.304;9.816;2022-09-09T15:46:45;1.20;;;1.10;;
545;SDS011;259;53.304;9.816;2022-09-09T15:49:20;0.90;;;0.90;;
545;SDS011;259;53.304;9.816;2022-09-09T15:51:57;2.27;;;1.00;;
545;SDS011;259;53.304;9.816;2022-09-09T15:54:27;1.10;;;1.00;;
545;SDS011;259;53.304;9.816;2022-09-09T15:56:56;1.13;;;0.90;;
545;SDS011;259;53.304;9.816;2022-09-09T15:59:23;1.93;;;1.10;;
545;SDS011;259;53.304;9.816;2022-09-09T16:01:50;0.80;;;0.77;;
545;SDS011;259;53.304;9.816;2022-09-09T16:04:19;1.03;;;0.80;;
545;SDS011;259;53.304;9.816;2022-09-09T16:06:49;1.00;;;0.90;;
545;SDS011;259;53.304;9.816;2022-09-09T16:09:18;1.13;;;1.03;;
545;SDS011;259;53.304;9.816;2022-09-09T16:11:44;1.10;;;1.00;;
545;SDS011;259;53.304;9.816;2022-09-09T16:14:11;0.80;;;0.80;;
545;SDS011;259;53.304;9.816;2022-09-09T16:16:37;1.30;;;1.20;;
545;SDS011;259;53.304;9.816;2022-09-09T16:19:06;1.47;;;1.03;;
545;SDS011;259;53.304;9.816;2022-09-09T16:21:36;0.73;;;0.73;;
545;SDS011;259;53.304;9.816;2022-09-09T16:24:04;1.07;;;1.00;;
545;SDS011;259;53.304;9.816;2022-09-09T16:26:32;1.23;;;1.13;;
545;SDS011;259;53.304;9.816;2022-09-09T16:28:59;1.03;;;0.93;;
545;SDS011;259;53.304;9.816;2022-09-09T16:31:26;1.30;;;0.80;;
545;SDS011;259;53.304;9.816;2022-09-09T16:33:53;1.27;;;1.00;;
545;SDS011;259;53.304;9.816;2022-09-09T16:36:25;0.77;;;0.77;;
545;SDS011;259;53.304;9.816;2022-09-09T16:38:53;1.10;;;0.80;;
545;SDS011;259;53.304;9.816;2022-09-09T16:41:22;0.63;;;0.63;;
545;SDS011;259;53.304;9.816;2022-09-09T16:43:52;2.23;;;0.70;;
545;SDS011;259;53.304;9.816;2022-09-09T16:46:19;0.90;;;0.90;;
545;SDS011;259;53.304;9.816;2022-09-09T16:48:46;1.70;;;0.97;;
545;SDS011;259;53.304;9.816;2022-09-09T16:51:18;0.87;;;0.70;;
545;SDS011;259;53.304;9.816;2022-09-09T16:53:48;1.10;;;0.93;;
545;SDS011;259;53.304;9.816;2022-09-09T16:56:24;1.20;;;0.93;;
545;SDS011;259;53.304;9.816;2022-09-09T16:58:52;0.90;;;0.90;;
545;SDS011;259;53.304;9.816;2022-09-09T17:01:23;1.10;;;1.10;;
545;SDS011;259;53.304;9.816;2022-09-09T17:03:54;1.07;;;0.80;;
545;SDS011;259;53.304;9.816;2022-09-09T17:06:23;1.17;;;0.70;;
545;SDS011;259;53.304;9.816;2022-09-09T17:08:55;0.87;;;0.87;;
545;SDS011;259;53.304;9.816;2022-09-09T17:11:23;2.50;;;1.00;;
545;SDS011;259;53.304;9.816;2022-09-09T17:13:49;1.53;;;0.90;;
545;SDS011;259;53.304;9.816;2022-09-09T17:16:16;0.90;;;0.90;;
545;SDS011;259;53.304;9.816;2022-09-09T17:18:43;1.20;;;0.93;;
545;SDS011;259;53.304;9.816;2022-09-09T17:21:14;1.70;;;0.93;;
545;SDS011;259;53.304;9.816;2022-09-09T17:23:43;0.80;;;0.80;;
545;SDS011;259;53.304;9.816;2022-09-09T17:26:10;0.70;;;0.70;;
545;SDS011;259;53.304;9.816;2022-09-09T17:28:38;0.70;;;0.63;;
545;SDS011;259;53.304;9.816;2022-09-09T17:31:06;0.90;;;0.73;;
545;SDS011;259;53.304;9.816;2022-09-09T17:33:32;1.63;;;0.80;;
545;SDS011;259;53.304;9.816;2022-09-09T17:36:00;1.20;;;1.20;;
545;SDS011;259;53.304;9.816;2022-09-09T17:38:31;0.67;;;0.63;;
545;SDS011;259;53.304;9.816;2022-09-09T17:43:31;0.90;;;0.90;;
545;SDS011;259;53.304;9.816;2022-09-09T17:46:04;1.23;;;1.00;;
545;SDS011;259;53.304;9.816;2022-09-09T17:48:52;1.60;;;0.90;;
545;SDS011;259;53.304;9.816;2022-09-09T17:51:21;1.10;;;1.00;;
545;SDS011;259;53.304;9.816;2022-09-09T17:53:50;1.10;;;1.00;;
545;SDS011;259;53.304;9.816;2022-09-09T17:56:17;0.83;;;0.83;;
545;SDS011;259;53.304;9.816;2022-09-09T17:58:45;0.90;;;0.90;;
545;SDS011;259;53.304;9.816;2022-09-09T18:01:13;1.43;;;0.80;;
545;SDS011;259;53.304;9.816;2022-09-09T18:03:41;1.40;;;0.90;;
545;SDS011;259;53.304;9.816;2022-09-09T18:06:09;1.00;;;0.90;;
545;SDS011;259;53.304;9.816;2022-09-09T18:08:40;1.53;;;0.80;;
545;SDS011;259;53.304;9.816;2022-09-09T18:11:06;0.83;;;0.83;;
545;SDS011;259;53.304;9.816;2022-09-09T18:13:32;1.20;;;1.10;;
545;SDS011;259;53.304;9.816;2022-09-09T18:15:58;1.33;;;0.97;;